Leolyn, Pennsylvania
Current Conditions -  °F | °C
As of 4:05 PM on Thursday 18 Dec 2014 (Local Time) from KIPT Reporting Station
Overcast Overcast  
Wind Chill: 28°   Ceiling: 3000
Heat Index: 36°   Visibility: 10mi
Dew Point: 25°   Wind: 12mph
Humidity: 64%   Direction: 270°W
Pressure: 30.05"   Gusts: NA
Location:  41.5548°N, 76.8911°W
Report Text: KIPT 182105Z 27010KT 10SM OVC030 02/M04 A3005 RMK AO2 T00221039
Loading
Personal Weather Stations






























Interactive Weather Map New forecast layout! Learn more

10-Day Weather Forecast

Advertisements
Track Severe Weather on mobile